sensor_id;sensor_type;location;lat;lon;timestamp;P1;durP1;ratioP1;P2;durP2;ratioP2
51194;SDS011;37259;49.972;19.850;2022-12-13T00:00:44;12.8;;;8.3;;
51194;SDS011;37259;49.972;19.850;2022-12-13T00:01:44;12.8;;;8.3;;
51194;SDS011;37259;49.972;19.850;2022-12-13T00:02:44;12.8;;;8.3;;
51194;SDS011;37259;49.972;19.850;2022-12-13T00:03:44;12.8;;;8.3;;
51194;SDS011;37259;49.972;19.850;2022-12-13T00:04:44;12.8;;;8.3;;
51194;SDS011;37259;49.972;19.850;2022-12-13T00:05:44;12.8;;;8.3;;
51194;SDS011;37259;49.972;19.850;2022-12-13T00:06:44;12.8;;;8.3;;
51194;SDS011;37259;49.972;19.850;2022-12-13T00:07:44;12.8;;;8.3;;
51194;SDS011;37259;49.972;19.850;2022-12-13T00:08:44;12.8;;;8.3;;
51194;SDS011;37259;49.972;19.850;2022-12-13T00:09:43;12.8;;;8.3;;
51194;SDS011;37259;49.972;19.850;2022-12-13T00:10:44;12.8;;;8.3;;
51194;SDS011;37259;49.972;19.850;2022-12-13T00:11:44;12.8;;;8.3;;
51194;SDS011;37259;49.972;19.850;2022-12-13T00:12:44;12.8;;;8.3;;
51194;SDS011;37259;49.972;19.850;2022-12-13T00:13:44;12.8;;;8.3;;
51194;SDS011;37259;49.972;19.850;2022-12-13T00:14:44;12.8;;;8.3;;
51194;SDS011;37259;49.972;19.850;2022-12-13T00:15:44;12.8;;;8.3;;
51194;SDS011;37259;49.972;19.850;2022-12-13T00:16:44;12.8;;;8.3;;
51194;SDS011;37259;49.972;19.850;2022-12-13T00:17:44;12.8;;;8.3;;
51194;SDS011;37259;49.972;19.850;2022-12-13T00:18:45;12.8;;;8.3;;
51194;SDS011;37259;49.972;19.850;2022-12-13T00:19:45;12.8;;;8.3;;
51194;SDS011;37259;49.972;19.850;2022-12-13T00:20:44;12.8;;;8.3;;
51194;SDS011;37259;49.972;19.850;2022-12-13T00:21:44;12.8;;;8.3;;
51194;SDS011;37259;49.972;19.850;2022-12-13T00:22:44;12.8;;;8.3;;
51194;SDS011;37259;49.972;19.850;2022-12-13T00:23:44;19.3;;;11.7;;
51194;SDS011;37259;49.972;19.850;2022-12-13T00:24:44;19.3;;;11.7;;
51194;SDS011;37259;49.972;19.850;2022-12-13T00:25:44;19.3;;;11.7;;
51194;SDS011;37259;49.972;19.850;2022-12-13T00:26:44;19.3;;;11.7;;
51194;SDS011;37259;49.972;19.850;2022-12-13T00:27:44;19.3;;;11.7;;
51194;SDS011;37259;49.972;19.850;2022-12-13T00:28:44;19.3;;;11.7;;
51194;SDS011;37259;49.972;19.850;2022-12-13T00:29:44;19.3;;;11.7;;
51194;SDS011;37259;49.972;19.850;2022-12-13T00:30:44;19.3;;;11.7;;
51194;SDS011;37259;49.972;19.850;2022-12-13T00:31:44;19.3;;;11.7;;
51194;SDS011;37259;49.972;19.850;2022-12-13T00:32:44;19.3;;;11.7;;
51194;SDS011;37259;49.972;19.850;2022-12-13T00:33:44;19.3;;;11.7;;
51194;SDS011;37259;49.972;19.850;2022-12-13T00:34:44;19.3;;;11.7;;
51194;SDS011;37259;49.972;19.850;2022-12-13T00:35:44;19.3;;;11.7;;
51194;SDS011;37259;49.972;19.850;2022-12-13T00:36:44;19.3;;;11.7;;
51194;SDS011;37259;49.972;19.850;2022-12-13T00:37:44;19.3;;;11.7;;
51194;SDS011;37259;49.972;19.850;2022-12-13T00:38:44;19.3;;;11.7;;
51194;SDS011;37259;49.972;19.850;2022-12-13T00:39:43;19.3;;;11.7;;
51194;SDS011;37259;49.972;19.850;2022-12-13T00:40:44;19.3;;;11.7;;
51194;SDS011;37259;49.972;19.850;2022-12-13T00:41:44;19.3;;;11.7;;
51194;SDS011;37259;49.972;19.850;2022-12-13T00:42:44;19.3;;;11.7;;
51194;SDS011;37259;49.972;19.850;2022-12-13T00:43:44;19.3;;;11.7;;
51194;SDS011;37259;49.972;19.850;2022-12-13T00:44:44;19.3;;;11.7;;
51194;SDS011;37259;49.972;19.850;2022-12-13T00:45:44;19.3;;;11.7;;
51194;SDS011;37259;49.972;19.850;2022-12-13T00:46:44;19.3;;;11.7;;
51194;SDS011;37259;49.972;19.850;2022-12-13T00:47:44;19.3;;;11.7;;
51194;SDS011;37259;49.972;19.850;2022-12-13T00:48:47;19.3;;;11.7;;
51194;SDS011;37259;49.972;19.850;2022-12-13T00:49:44;19.3;;;11.7;;
51194;SDS011;37259;49.972;19.850;2022-12-13T00:50:44;19.3;;;11.7;;
51194;SDS011;37259;49.972;19.850;2022-12-13T00:51:44;19.3;;;11.7;;
51194;SDS011;37259;49.972;19.850;2022-12-13T00:52:44;19.3;;;11.7;;
51194;SDS011;37259;49.972;19.850;2022-12-13T00:53:44;14.7;;;8.2;;
51194;SDS011;37259;49.972;19.850;2022-12-13T00:54:44;14.7;;;8.2;;
51194;SDS011;37259;49.972;19.850;2022-12-13T00:55:44;14.7;;;8.2;;
51194;SDS011;37259;49.972;19.850;2022-12-13T00:56:43;14.7;;;8.2;;
51194;SDS011;37259;49.972;19.850;2022-12-13T00:57:44;14.7;;;8.2;;
51194;SDS011;37259;49.972;19.850;2022-12-13T00:58:44;14.7;;;8.2;;
51194;SDS011;37259;49.972;19.850;2022-12-13T00:59:44;14.7;;;8.2;;
51194;SDS011;37259;49.972;19.850;2022-12-13T01:00:44;14.7;;;8.2;;
51194;SDS011;37259;49.972;19.850;2022-12-13T01:01:44;14.7;;;8.2;;
51194;SDS011;37259;49.972;19.850;2022-12-13T01:02:44;14.7;;;8.2;;
51194;SDS011;37259;49.972;19.850;2022-12-13T01:03:44;14.7;;;8.2;;
51194;SDS011;37259;49.972;19.850;2022-12-13T01:04:44;14.7;;;8.2;;
51194;SDS011;37259;49.972;19.850;2022-12-13T01:05:44;14.7;;;8.2;;
51194;SDS011;37259;49.972;19.850;2022-12-13T01:06:44;14.7;;;8.2;;
51194;SDS011;37259;49.972;19.850;2022-12-13T01:07:44;14.7;;;8.2;;
51194;SDS011;37259;49.972;19.850;2022-12-13T01:08:44;14.7;;;8.2;;
51194;SDS011;37259;49.972;19.850;2022-12-13T01:09:44;14.7;;;8.2;;
51194;SDS011;37259;49.972;19.850;2022-12-13T01:10:44;14.7;;;8.2;;
51194;SDS011;37259;49.972;19.850;2022-12-13T01:11:44;14.7;;;8.2;;
51194;SDS011;37259;49.972;19.850;2022-12-13T01:12:44;14.7;;;8.2;;
51194;SDS011;37259;49.972;19.850;2022-12-13T01:13:44;14.7;;;8.2;;
51194;SDS011;37259;49.972;19.850;2022-12-13T01:14:44;14.7;;;8.2;;
51194;SDS011;37259;49.972;19.850;2022-12-13T01:15:44;14.7;;;8.2;;
51194;SDS011;37259;49.972;19.850;2022-12-13T01:16:44;14.7;;;8.2;;
51194;SDS011;37259;49.972;19.850;2022-12-13T01:17:44;14.7;;;8.2;;
51194;SDS011;37259;49.972;19.850;2022-12-13T01:18:44;14.7;;;8.2;;
51194;SDS011;37259;49.972;19.850;2022-12-13T01:19:44;14.7;;;8.2;;
51194;SDS011;37259;49.972;19.850;2022-12-13T01:20:55;14.7;;;8.2;;
51194;SDS011;37259;49.972;19.850;2022-12-13T01:21:44;14.7;;;8.2;;
51194;SDS011;37259;49.972;19.850;2022-12-13T01:22:44;14.7;;;8.2;;
51194;SDS011;37259;49.972;19.850;2022-12-13T01:23:44;18.3;;;8.2;;
51194;SDS011;37259;49.972;19.850;2022-12-13T01:24:44;18.3;;;8.2;;
51194;SDS011;37259;49.972;19.850;2022-12-13T01:25:44;18.3;;;8.2;;
51194;SDS011;37259;49.972;19.850;2022-12-13T01:26:44;18.3;;;8.2;;
51194;SDS011;37259;49.972;19.850;2022-12-13T01:27:44;18.3;;;8.2;;
51194;SDS011;37259;49.972;19.850;2022-12-13T01:28:44;18.3;;;8.2;;
51194;SDS011;37259;49.972;19.850;2022-12-13T01:29:44;18.3;;;8.2;;
51194;SDS011;37259;49.972;19.850;2022-12-13T01:30:44;18.3;;;8.2;;
51194;SDS011;37259;49.972;19.850;2022-12-13T01:31:44;18.3;;;8.2;;
51194;SDS011;37259;49.972;19.850;2022-12-13T01:32:44;18.3;;;8.2;;
51194;SDS011;37259;49.972;19.850;2022-12-13T01:33:44;18.3;;;8.2;;
51194;SDS011;37259;49.972;19.850;2022-12-13T01:34:44;18.3;;;8.2;;
51194;SDS011;37259;49.972;19.850;2022-12-13T01:35:44;18.3;;;8.2;;
51194;SDS011;37259;49.972;19.850;2022-12-13T01:36:44;18.3;;;8.2;;
51194;SDS011;37259;49.972;19.850;2022-12-13T01:37:44;18.3;;;8.2;;
51194;SDS011;37259;49.972;19.850;2022-12-13T01:38:44;18.3;;;8.2;;
51194;SDS011;37259;49.972;19.850;2022-12-13T01:39:44;18.3;;;8.2;;
51194;SDS011;37259;49.972;19.850;2022-12-13T01:40:44;18.3;;;8.2;;
51194;SDS011;37259;49.972;19.850;2022-12-13T01:41:45;18.3;;;8.2;;
51194;SDS011;37259;49.972;19.850;2022-12-13T01:42:44;18.3;;;8.2;;
51194;SDS011;37259;49.972;19.850;2022-12-13T01:43:49;18.3;;;8.2;;
51194;SDS011;37259;49.972;19.850;2022-12-13T01:44:57;18.3;;;8.2;;
51194;SDS011;37259;49.972;19.850;2022-12-13T01:45:44;18.3;;;8.2;;
51194;SDS011;37259;49.972;19.850;2022-12-13T01:46:44;18.3;;;8.2;;
51194;SDS011;37259;49.972;19.850;2022-12-13T01:47:44;18.3;;;8.2;;
51194;SDS011;37259;49.972;19.850;2022-12-13T01:48:45;18.3;;;8.2;;
51194;SDS011;37259;49.972;19.850;2022-12-13T01:49:44;18.3;;;8.2;;
51194;SDS011;37259;49.972;19.850;2022-12-13T01:50:45;18.3;;;8.2;;
51194;SDS011;37259;49.972;19.850;2022-12-13T01:51:45;18.3;;;8.2;;
51194;SDS011;37259;49.972;19.850;2022-12-13T01:52:44;18.3;;;8.2;;
51194;SDS011;37259;49.972;19.850;2022-12-13T01:53:44;11.7;;;6.5;;
51194;SDS011;37259;49.972;19.850;2022-12-13T01:54:45;11.7;;;6.5;;
51194;SDS011;37259;49.972;19.850;2022-12-13T01:55:44;11.7;;;6.5;;
51194;SDS011;37259;49.972;19.850;2022-12-13T01:56:46;11.7;;;6.5;;
51194;SDS011;37259;49.972;19.850;2022-12-13T01:57:44;11.7;;;6.5;;
51194;SDS011;37259;49.972;19.850;2022-12-13T01:58:44;11.7;;;6.5;;
51194;SDS011;37259;49.972;19.850;2022-12-13T01:59:44;11.7;;;6.5;;
51194;SDS011;37259;49.972;19.850;2022-12-13T02:00:44;11.7;;;6.5;;
51194;SDS011;37259;49.972;19.850;2022-12-13T02:01:44;11.7;;;6.5;;
51194;SDS011;37259;49.972;19.850;2022-12-13T02:02:44;11.7;;;6.5;;
51194;SDS011;37259;49.972;19.850;2022-12-13T02:03:44;11.7;;;6.5;;
51194;SDS011;37259;49.972;19.850;2022-12-13T02:04:45;11.7;;;6.5;;
51194;SDS011;37259;49.972;19.850;2022-12-13T02:05:45;11.7;;;6.5;;
51194;SDS011;37259;49.972;19.850;2022-12-13T02:06:44;11.7;;;6.5;;
51194;SDS011;37259;49.972;19.850;2022-12-13T02:07:44;11.7;;;6.5;;
51194;SDS011;37259;49.972;19.850;2022-12-13T02:08:44;11.7;;;6.5;;
51194;SDS011;37259;49.972;19.850;2022-12-13T02:09:44;11.7;;;6.5;;
51194;SDS011;37259;49.972;19.850;2022-12-13T02:10:44;11.7;;;6.5;;
51194;SDS011;37259;49.972;19.850;2022-12-13T02:11:44;11.7;;;6.5;;
51194;SDS011;37259;49.972;19.850;2022-12-13T02:12:44;11.7;;;6.5;;
51194;SDS011;37259;49.972;19.850;2022-12-13T02:13:44;11.7;;;6.5;;
51194;SDS011;37259;49.972;19.850;2022-12-13T02:14:44;11.7;;;6.5;;
51194;SDS011;37259;49.972;19.850;2022-12-13T02:15:46;11.7;;;6.5;;
51194;SDS011;37259;49.972;19.850;2022-12-13T02:16:45;11.7;;;6.5;;
51194;SDS011;37259;49.972;19.850;2022-12-13T02:17:49;11.7;;;6.5;;
51194;SDS011;37259;49.972;19.850;2022-12-13T02:18:48;11.7;;;6.5;;
51194;SDS011;37259;49.972;19.850;2022-12-13T02:19:52;11.7;;;6.5;;
51194;SDS011;37259;49.972;19.850;2022-12-13T02:20:48;11.7;;;6.5;;
51194;SDS011;37259;49.972;19.850;2022-12-13T02:21:45;11.7;;;6.5;;
51194;SDS011;37259;49.972;19.850;2022-12-13T02:22:47;11.7;;;6.5;;
51194;SDS011;37259;49.972;19.850;2022-12-13T02:23:57;14.6;;;8.1;;
51194;SDS011;37259;49.972;19.850;2022-12-13T02:24:47;14.6;;;8.1;;
51194;SDS011;37259;49.972;19.850;2022-12-13T02:25:49;14.6;;;8.1;;
51194;SDS011;37259;49.972;19.850;2022-12-13T02:26:46;14.6;;;8.1;;
51194;SDS011;37259;49.972;19.850;2022-12-13T02:27:49;14.6;;;8.1;;
51194;SDS011;37259;49.972;19.850;2022-12-13T02:28:47;14.6;;;8.1;;
51194;SDS011;37259;49.972;19.850;2022-12-13T02:29:54;14.6;;;8.1;;
51194;SDS011;37259;49.972;19.850;2022-12-13T02:30:45;14.6;;;8.1;;
51194;SDS011;37259;49.972;19.850;2022-12-13T02:31:45;14.6;;;8.1;;
51194;SDS011;37259;49.972;19.850;2022-12-13T02:32:49;14.6;;;8.1;;
51194;SDS011;37259;49.972;19.850;2022-12-13T02:33:46;14.6;;;8.1;;
51194;SDS011;37259;49.972;19.850;2022-12-13T02:34:45;14.6;;;8.1;;
51194;SDS011;37259;49.972;19.850;2022-12-13T02:35:45;14.6;;;8.1;;
51194;SDS011;37259;49.972;19.850;2022-12-13T02:36:46;14.6;;;8.1;;
51194;SDS011;37259;49.972;19.850;2022-12-13T02:37:46;14.6;;;8.1;;
51194;SDS011;37259;49.972;19.850;2022-12-13T02:38:46;14.6;;;8.1;;
51194;SDS011;37259;49.972;19.850;2022-12-13T02:39:46;14.6;;;8.1;;
51194;SDS011;37259;49.972;19.850;2022-12-13T02:40:44;14.6;;;8.1;;
51194;SDS011;37259;49.972;19.850;2022-12-13T02:41:45;14.6;;;8.1;;
51194;SDS011;37259;49.972;19.850;2022-12-13T02:42:46;14.6;;;8.1;;
51194;SDS011;37259;49.972;19.850;2022-12-13T02:43:45;14.6;;;8.1;;
51194;SDS011;37259;49.972;19.850;2022-12-13T02:44:45;14.6;;;8.1;;
51194;SDS011;37259;49.972;19.850;2022-12-13T02:45:44;14.6;;;8.1;;
51194;SDS011;37259;49.972;19.850;2022-12-13T02:46:45;14.6;;;8.1;;
51194;SDS011;37259;49.972;19.850;2022-12-13T02:47:44;14.6;;;8.1;;
51194;SDS011;37259;49.972;19.850;2022-12-13T02:48:44;14.6;;;8.1;;
51194;SDS011;37259;49.972;19.850;2022-12-13T02:49:45;14.6;;;8.1;;
51194;SDS011;37259;49.972;19.850;2022-12-13T02:50:44;14.6;;;8.1;;
51194;SDS011;37259;49.972;19.850;2022-12-13T02:51:44;14.6;;;8.1;;
51194;SDS011;37259;49.972;19.850;2022-12-13T02:52:44;14.6;;;8.1;;
51194;SDS011;37259;49.972;19.850;2022-12-13T02:53:44;15.2;;;7.8;;
51194;SDS011;37259;49.972;19.850;2022-12-13T02:54:44;15.2;;;7.8;;
51194;SDS011;37259;49.972;19.850;2022-12-13T02:55:44;15.2;;;7.8;;
51194;SDS011;37259;49.972;19.850;2022-12-13T02:56:51;15.2;;;7.8;;
51194;SDS011;37259;49.972;19.850;2022-12-13T02:57:44;15.2;;;7.8;;
51194;SDS011;37259;49.972;19.850;2022-12-13T02:58:44;15.2;;;7.8;;
51194;SDS011;37259;49.972;19.850;2022-12-13T02:59:44;15.2;;;7.8;;
51194;SDS011;37259;49.972;19.850;2022-12-13T03:00:46;15.2;;;7.8;;
51194;SDS011;37259;49.972;19.850;2022-12-13T03:01:48;15.2;;;7.8;;
51194;SDS011;37259;49.972;19.850;2022-12-13T03:02:46;15.2;;;7.8;;
51194;SDS011;37259;49.972;19.850;2022-12-13T03:03:46;15.2;;;7.8;;
51194;SDS011;37259;49.972;19.850;2022-12-13T03:04:46;15.2;;;7.8;;
51194;SDS011;37259;49.972;19.850;2022-12-13T03:05:44;15.2;;;7.8;;
51194;SDS011;37259;49.972;19.850;2022-12-13T03:06:46;15.2;;;7.8;;
51194;SDS011;37259;49.972;19.850;2022-12-13T03:07:45;15.2;;;7.8;;
51194;SDS011;37259;49.972;19.850;2022-12-13T03:08:46;15.2;;;7.8;;
51194;SDS011;37259;49.972;19.850;2022-12-13T03:09:47;15.2;;;7.8;;
51194;SDS011;37259;49.972;19.850;2022-12-13T03:10:46;15.2;;;7.8;;
51194;SDS011;37259;49.972;19.850;2022-12-13T03:11:48;15.2;;;7.8;;
51194;SDS011;37259;49.972;19.850;2022-12-13T03:12:44;15.2;;;7.8;;
51194;SDS011;37259;49.972;19.850;2022-12-13T03:13:46;15.2;;;7.8;;
51194;SDS011;37259;49.972;19.850;2022-12-13T03:14:45;15.2;;;7.8;;
51194;SDS011;37259;49.972;19.850;2022-12-13T03:15:45;15.2;;;7.8;;
51194;SDS011;37259;49.972;19.850;2022-12-13T03:16:44;15.2;;;7.8;;
51194;SDS011;37259;49.972;19.850;2022-12-13T03:17:46;15.2;;;7.8;;
51194;SDS011;37259;49.972;19.850;2022-12-13T03:18:44;15.2;;;7.8;;
51194;SDS011;37259;49.972;19.850;2022-12-13T03:19:44;15.2;;;7.8;;
51194;SDS011;37259;49.972;19.850;2022-12-13T03:20:44;15.2;;;7.8;;
51194;SDS011;37259;49.972;19.850;2022-12-13T03:21:44;15.2;;;7.8;;
51194;SDS011;37259;49.972;19.850;2022-12-13T03:22:44;15.2;;;7.8;;
51194;SDS011;37259;49.972;19.850;2022-12-13T03:23:44;14.5;;;7.6;;
51194;SDS011;37259;49.972;19.850;2022-12-13T03:24:44;14.5;;;7.6;;
51194;SDS011;37259;49.972;19.850;2022-12-13T03:25:44;14.5;;;7.6;;
51194;SDS011;37259;49.972;19.850;2022-12-13T03:26:44;14.5;;;7.6;;
51194;SDS011;37259;49.972;19.850;2022-12-13T03:27:44;14.5;;;7.6;;
51194;SDS011;37259;49.972;19.850;2022-12-13T03:28:44;14.5;;;7.6;;
51194;SDS011;37259;49.972;19.850;2022-12-13T03:29:44;14.5;;;7.6;;
51194;SDS011;37259;49.972;19.850;2022-12-13T03:30:44;14.5;;;7.6;;
51194;SDS011;37259;49.972;19.850;2022-12-13T03:31:44;14.5;;;7.6;;
51194;SDS011;37259;49.972;19.850;2022-12-13T03:32:44;14.5;;;7.6;;
51194;SDS011;37259;49.972;19.850;2022-12-13T03:33:44;14.5;;;7.6;;
51194;SDS011;37259;49.972;19.850;2022-12-13T03:34:44;14.5;;;7.6;;
51194;SDS011;37259;49.972;19.850;2022-12-13T03:35:44;14.5;;;7.6;;
51194;SDS011;37259;49.972;19.850;2022-12-13T03:36:44;14.5;;;7.6;;
51194;SDS011;37259;49.972;19.850;2022-12-13T03:37:44;14.5;;;7.6;;
51194;SDS011;37259;49.972;19.850;2022-12-13T03:38:44;14.5;;;7.6;;
51194;SDS011;37259;49.972;19.850;2022-12-13T03:39:44;14.5;;;7.6;;
51194;SDS011;37259;49.972;19.850;2022-12-13T03:40:44;14.5;;;7.6;;
51194;SDS011;37259;49.972;19.850;2022-12-13T03:41:44;14.5;;;7.6;;
51194;SDS011;37259;49.972;19.850;2022-12-13T03:42:44;14.5;;;7.6;;
51194;SDS011;37259;49.972;19.850;2022-12-13T03:43:44;14.5;;;7.6;;
51194;SDS011;37259;49.972;19.850;2022-12-13T03:44:44;14.5;;;7.6;;
51194;SDS011;37259;49.972;19.850;2022-12-13T03:45:44;14.5;;;7.6;;
51194;SDS011;37259;49.972;19.850;2022-12-13T03:46:44;14.5;;;7.6;;
51194;SDS011;37259;49.972;19.850;2022-12-13T03:47:44;14.5;;;7.6;;
51194;SDS011;37259;49.972;19.850;2022-12-13T03:48:44;14.5;;;7.6;;
51194;SDS011;37259;49.972;19.850;2022-12-13T03:49:44;14.5;;;7.6;;
51194;SDS011;37259;49.972;19.850;2022-12-13T03:50:44;14.5;;;7.6;;
51194;SDS011;37259;49.972;19.850;2022-12-13T03:51:44;14.5;;;7.6;;
51194;SDS011;37259;49.972;19.850;2022-12-13T03:52:44;14.5;;;7.6;;
51194;SDS011;37259;49.972;19.850;2022-12-13T03:53:44;16.4;;;8.4;;
51194;SDS011;37259;49.972;19.850;2022-12-13T03:54:44;16.4;;;8.4;;
51194;SDS011;37259;49.972;19.850;2022-12-13T03:55:44;16.4;;;8.4;;
51194;SDS011;37259;49.972;19.850;2022-12-13T03:56:44;16.4;;;8.4;;
51194;SDS011;37259;49.972;19.850;2022-12-13T03:57:44;16.4;;;8.4;;
51194;SDS011;37259;49.972;19.850;2022-12-13T03:58:44;16.4;;;8.4;;
51194;SDS011;37259;49.972;19.850;2022-12-13T03:59:44;16.4;;;8.4;;
51194;SDS011;37259;49.972;19.850;2022-12-13T04:00:44;16.4;;;8.4;;
51194;SDS011;37259;49.972;19.850;2022-12-13T04:01:44;16.4;;;8.4;;
51194;SDS011;37259;49.972;19.850;2022-12-13T04:02:44;16.4;;;8.4;;
51194;SDS011;37259;49.972;19.850;2022-12-13T04:03:45;16.4;;;8.4;;
51194;SDS011;37259;49.972;19.850;2022-12-13T04:04:44;16.4;;;8.4;;
51194;SDS011;37259;49.972;19.850;2022-12-13T04:05:44;16.4;;;8.4;;
51194;SDS011;37259;49.972;19.850;2022-12-13T04:06:44;16.4;;;8.4;;
51194;SDS011;37259;49.972;19.850;2022-12-13T04:07:44;16.4;;;8.4;;
51194;SDS011;37259;49.972;19.850;2022-12-13T04:08:44;16.4;;;8.4;;
51194;SDS011;37259;49.972;19.850;2022-12-13T04:09:44;16.4;;;8.4;;
51194;SDS011;37259;49.972;19.850;2022-12-13T04:10:44;16.4;;;8.4;;
51194;SDS011;37259;49.972;19.850;2022-12-13T04:11:44;16.4;;;8.4;;
51194;SDS011;37259;49.972;19.850;2022-12-13T04:12:44;16.4;;;8.4;;
51194;SDS011;37259;49.972;19.850;2022-12-13T04:13:44;16.4;;;8.4;;
51194;SDS011;37259;49.972;19.850;2022-12-13T04:14:44;16.4;;;8.4;;
51194;SDS011;37259;49.972;19.850;2022-12-13T04:15:44;16.4;;;8.4;;
51194;SDS011;37259;49.972;19.850;2022-12-13T04:16:44;16.4;;;8.4;;
51194;SDS011;37259;49.972;19.850;2022-12-13T04:17:44;16.4;;;8.4;;
51194;SDS011;37259;49.972;19.850;2022-12-13T04:18:44;16.4;;;8.4;;
51194;SDS011;37259;49.972;19.850;2022-12-13T04:19:44;16.4;;;8.4;;
51194;SDS011;37259;49.972;19.850;2022-12-13T04:20:44;16.4;;;8.4;;
51194;SDS011;37259;49.972;19.850;2022-12-13T04:21:44;16.4;;;8.4;;
51194;SDS011;37259;49.972;19.850;2022-12-13T04:22:44;15.8;;;6.6;;
51194;SDS011;37259;49.972;19.850;2022-12-13T04:23:44;15.8;;;6.6;;
51194;SDS011;37259;49.972;19.850;2022-12-13T04:24:44;15.8;;;6.6;;
51194;SDS011;37259;49.972;19.850;2022-12-13T04:25:44;15.8;;;6.6;;
51194;SDS011;37259;49.972;19.850;2022-12-13T04:26:44;15.8;;;6.6;;
51194;SDS011;37259;49.972;19.850;2022-12-13T04:27:44;15.8;;;6.6;;
51194;SDS011;37259;49.972;19.850;2022-12-13T04:28:44;15.8;;;6.6;;
51194;SDS011;37259;49.972;19.850;2022-12-13T04:29:44;15.8;;;6.6;;
51194;SDS011;37259;49.972;19.850;2022-12-13T04:30:44;15.8;;;6.6;;
51194;SDS011;37259;49.972;19.850;2022-12-13T04:31:44;15.8;;;6.6;;
51194;SDS011;37259;49.972;19.850;2022-12-13T04:32:44;15.8;;;6.6;;
51194;SDS011;37259;49.972;19.850;2022-12-13T04:33:44;15.8;;;6.6;;
51194;SDS011;37259;49.972;19.850;2022-12-13T04:34:44;15.8;;;6.6;;
51194;SDS011;37259;49.972;19.850;2022-12-13T04:35:44;15.8;;;6.6;;
51194;SDS011;37259;49.972;19.850;2022-12-13T04:36:44;15.8;;;6.6;;
51194;SDS011;37259;49.972;19.850;2022-12-13T04:37:44;15.8;;;6.6;;
51194;SDS011;37259;49.972;19.850;2022-12-13T04:38:44;15.8;;;6.6;;
51194;SDS011;37259;49.972;19.850;2022-12-13T04:39:44;15.8;;;6.6;;
51194;SDS011;37259;49.972;19.850;2022-12-13T04:40:44;15.8;;;6.6;;
51194;SDS011;37259;49.972;19.850;2022-12-13T04:41:44;15.8;;;6.6;;
51194;SDS011;37259;49.972;19.850;2022-12-13T04:42:44;15.8;;;6.6;;
51194;SDS011;37259;49.972;19.850;2022-12-13T04:43:45;15.8;;;6.6;;
51194;SDS011;37259;49.972;19.850;2022-12-13T04:44:44;15.8;;;6.6;;
51194;SDS011;37259;49.972;19.850;2022-12-13T04:45:44;15.8;;;6.6;;
51194;SDS011;37259;49.972;19.850;2022-12-13T04:46:44;15.8;;;6.6;;
51194;SDS011;37259;49.972;19.850;2022-12-13T04:47:44;15.8;;;6.6;;
51194;SDS011;37259;49.972;19.850;2022-12-13T04:48:44;15.8;;;6.6;;
51194;SDS011;37259;49.972;19.850;2022-12-13T04:49:44;15.8;;;6.6;;
51194;SDS011;37259;49.972;19.850;2022-12-13T04:50:44;15.8;;;6.6;;
51194;SDS011;37259;49.972;19.850;2022-12-13T04:51:44;15.8;;;6.6;;
51194;SDS011;37259;49.972;19.850;2022-12-13T04:52:44;10.1;;;6.3;;
51194;SDS011;37259;49.972;19.850;2022-12-13T04:53:44;10.1;;;6.3;;
51194;SDS011;37259;49.972;19.850;2022-12-13T04:54:44;10.1;;;6.3;;
51194;SDS011;37259;49.972;19.850;2022-12-13T04:55:44;10.1;;;6.3;;
51194;SDS011;37259;49.972;19.850;2022-12-13T04:56:44;10.1;;;6.3;;
51194;SDS011;37259;49.972;19.850;2022-12-13T04:57:44;10.1;;;6.3;;
51194;SDS011;37259;49.972;19.850;2022-12-13T04:58:44;10.1;;;6.3;;
51194;SDS011;37259;49.972;19.850;2022-12-13T04:59:44;10.1;;;6.3;;
51194;SDS011;37259;49.972;19.850;2022-12-13T05:00:44;10.1;;;6.3;;
51194;SDS011;37259;49.972;19.850;2022-12-13T05:01:44;10.1;;;6.3;;
51194;SDS011;37259;49.972;19.850;2022-12-13T05:02:44;10.1;;;6.3;;
51194;SDS011;37259;49.972;19.850;2022-12-13T05:03:44;10.1;;;6.3;;
51194;SDS011;37259;49.972;19.850;2022-12-13T05:04:44;10.1;;;6.3;;
51194;SDS011;37259;49.972;19.850;2022-12-13T05:05:44;10.1;;;6.3;;
51194;SDS011;37259;49.972;19.850;2022-12-13T05:06:44;10.1;;;6.3;;
51194;SDS011;37259;49.972;19.850;2022-12-13T05:07:44;10.1;;;6.3;;
51194;SDS011;37259;49.972;19.850;2022-12-13T05:08:44;10.1;;;6.3;;
51194;SDS011;37259;49.972;19.850;2022-12-13T05:09:44;10.1;;;6.3;;
51194;SDS011;37259;49.972;19.850;2022-12-13T05:10:44;10.1;;;6.3;;
51194;SDS011;37259;49.972;19.850;2022-12-13T05:11:44;10.1;;;6.3;;
51194;SDS011;37259;49.972;19.850;2022-12-13T05:12:44;10.1;;;6.3;;
51194;SDS011;37259;49.972;19.850;2022-12-13T05:13:44;10.1;;;6.3;;
51194;SDS011;37259;49.972;19.850;2022-12-13T05:14:44;10.1;;;6.3;;
51194;SDS011;37259;49.972;19.850;2022-12-13T05:15:44;10.1;;;6.3;;
51194;SDS011;37259;49.972;19.850;2022-12-13T05:16:44;10.1;;;6.3;;
51194;SDS011;37259;49.972;19.850;2022-12-13T05:17:44;10.1;;;6.3;;
51194;SDS011;37259;49.972;19.850;2022-12-13T05:18:44;10.1;;;6.3;;
51194;SDS011;37259;49.972;19.850;2022-12-13T05:19:44;10.1;;;6.3;;
51194;SDS011;37259;49.972;19.850;2022-12-13T05:20:44;10.1;;;6.3;;
51194;SDS011;37259;49.972;19.850;2022-12-13T05:21:44;10.1;;;6.3;;
51194;SDS011;37259;49.972;19.850;2022-12-13T05:22:44;12.5;;;6.3;;
51194;SDS011;37259;49.972;19.850;2022-12-13T05:23:44;12.5;;;6.3;;
51194;SDS011;37259;49.972;19.850;2022-12-13T05:24:44;12.5;;;6.3;;
51194;SDS011;37259;49.972;19.850;2022-12-13T05:25:44;12.5;;;6.3;;
51194;SDS011;37259;49.972;19.850;2022-12-13T05:26:44;12.5;;;6.3;;
51194;SDS011;37259;49.972;19.850;2022-12-13T05:27:44;12.5;;;6.3;;
51194;SDS011;37259;49.972;19.850;2022-12-13T05:28:44;12.5;;;6.3;;
51194;SDS011;37259;49.972;19.850;2022-12-13T05:29:44;12.5;;;6.3;;
51194;SDS011;37259;49.972;19.850;2022-12-13T05:30:44;12.5;;;6.3;;
51194;SDS011;37259;49.972;19.850;2022-12-13T05:31:44;12.5;;;6.3;;
51194;SDS011;37259;49.972;19.850;2022-12-13T05:32:44;12.5;;;6.3;;
51194;SDS011;37259;49.972;19.850;2022-12-13T05:33:44;12.5;;;6.3;;
51194;SDS011;37259;49.972;19.850;2022-12-13T05:34:44;12.5;;;6.3;;
51194;SDS011;37259;49.972;19.850;2022-12-13T05:35:44;12.5;;;6.3;;
51194;SDS011;37259;49.972;19.850;2022-12-13T05:36:44;12.5;;;6.3;;
51194;SDS011;37259;49.972;19.850;2022-12-13T05:37:44;12.5;;;6.3;;
51194;SDS011;37259;49.972;19.850;2022-12-13T05:38:44;12.5;;;6.3;;
51194;SDS011;37259;49.972;19.850;2022-12-13T05:39:44;12.5;;;6.3;;
51194;SDS011;37259;49.972;19.850;2022-12-13T05:40:44;12.5;;;6.3;;
51194;SDS011;37259;49.972;19.850;2022-12-13T05:41:44;12.5;;;6.3;;
51194;SDS011;37259;49.972;19.850;2022-12-13T05:42:44;12.5;;;6.3;;
51194;SDS011;37259;49.972;19.850;2022-12-13T05:43:44;12.5;;;6.3;;
51194;SDS011;37259;49.972;19.850;2022-12-13T05:44:44;12.5;;;6.3;;
51194;SDS011;37259;49.972;19.850;2022-12-13T05:45:44;12.5;;;6.3;;
51194;SDS011;37259;49.972;19.850;2022-12-13T05:46:44;12.5;;;6.3;;
51194;SDS011;37259;49.972;19.850;2022-12-13T05:47:44;12.5;;;6.3;;
51194;SDS011;37259;49.972;19.850;2022-12-13T05:48:44;12.5;;;6.3;;
51194;SDS011;37259;49.972;19.850;2022-12-13T05:49:44;12.5;;;6.3;;
51194;SDS011;37259;49.972;19.850;2022-12-13T05:50:44;12.5;;;6.3;;
51194;SDS011;37259;49.972;19.850;2022-12-13T05:51:44;12.5;;;6.3;;
51194;SDS011;37259;49.972;19.850;2022-12-13T05:52:44;9.5;;;6.3;;
51194;SDS011;37259;49.972;19.850;2022-12-13T05:53:44;9.5;;;6.3;;
51194;SDS011;37259;49.972;19.850;2022-12-13T05:54:44;9.5;;;6.3;;
51194;SDS011;37259;49.972;19.850;2022-12-13T05:55:44;9.5;;;6.3;;
51194;SDS011;37259;49.972;19.850;2022-12-13T05:56:44;9.5;;;6.3;;
51194;SDS011;37259;49.972;19.850;2022-12-13T05:57:44;9.5;;;6.3;;
51194;SDS011;37259;49.972;19.850;2022-12-13T05:58:44;9.5;;;6.3;;
51194;SDS011;37259;49.972;19.850;2022-12-13T05:59:44;9.5;;;6.3;;
51194;SDS011;37259;49.972;19.850;2022-12-13T06:00:44;9.5;;;6.3;;
51194;SDS011;37259;49.972;19.850;2022-12-13T06:01:44;9.5;;;6.3;;